createdAt,value
2023-01-11T00:00:35.416Z,39.85
2023-01-11T00:03:05.659Z,39.35
2023-01-11T00:05:36.272Z,39.47
2023-01-11T00:08:04.062Z,39.46
2023-01-11T00:10:30.042Z,39.35
2023-01-11T00:12:56.096Z,39.60
2023-01-11T00:15:22.005Z,41.38
2023-01-11T00:17:47.919Z,41.54
2023-01-11T00:20:14.655Z,41.94
2023-01-11T00:22:40.553Z,42.49
2023-01-11T00:25:06.733Z,42.60
2023-01-11T00:27:32.702Z,42.58
2023-01-11T00:29:58.641Z,42.81
2023-01-11T00:32:26.487Z,42.55
2023-01-11T00:34:53.316Z,41.40
2023-01-11T00:37:20.112Z,41.91
2023-01-11T00:39:46.035Z,42.88
2023-01-11T00:42:31.852Z,42.54
2023-01-11T00:45:16.305Z,42.88
2023-01-11T00:47:57.229Z,43.11
2023-01-11T00:50:24.678Z,42.22
2023-01-11T00:52:50.788Z,42.23
2023-01-11T00:55:16.890Z,41.44
2023-01-11T00:57:42.885Z,40.21
2023-01-11T01:00:10.256Z,39.43
2023-01-11T01:02:36.374Z,39.12
2023-01-11T01:05:02.360Z,38.60
2023-01-11T01:07:28.297Z,38.13
2023-01-11T01:09:54.208Z,38.50
2023-01-11T01:12:46.493Z,39.64
2023-01-11T01:15:12.456Z,40.80
2023-01-11T01:17:39.015Z,41.29
2023-01-11T01:20:05.614Z,40.51
2023-01-11T01:22:31.556Z,40.67
2023-01-11T01:24:57.435Z,40.65
2023-01-11T01:27:23.349Z,41.39
2023-01-11T01:29:49.361Z,41.49
2023-01-11T01:32:15.256Z,41.38
2023-01-11T01:34:41.210Z,41.31
2023-01-11T01:37:09.323Z,40.90
2023-01-11T01:39:35.300Z,40.76
2023-01-11T01:42:01.438Z,40.98
2023-01-11T01:44:52.417Z,41.10
2023-01-11T01:47:24.116Z,41.14
2023-01-11T01:49:50.413Z,41.28
2023-01-11T01:52:16.737Z,41.56
2023-01-11T01:54:46.399Z,41.32
2023-01-11T01:57:19.184Z,41.37
2023-01-11T01:59:50.931Z,41.88
2023-01-11T02:02:23.412Z,41.22
2023-01-11T02:04:50.664Z,41.19
2023-01-11T02:07:26.037Z,41.08
2023-01-11T02:10:17.205Z,41.51
2023-01-11T02:12:51.044Z,42.84
2023-01-11T02:15:19.596Z,42.51
2023-01-11T02:17:45.605Z,41.41
2023-01-11T02:20:31.623Z,41.39
2023-01-11T02:23:35.549Z,42.22
2023-01-11T02:26:39.205Z,43.65
2023-01-11T02:29:18.484Z,44.53
2023-01-11T02:32:21.035Z,43.89
2023-01-11T02:34:51.580Z,43.72
2023-01-11T02:37:33.887Z,43.44
2023-01-11T02:40:19.846Z,44.70
2023-01-11T02:43:11.328Z,43.74
2023-01-11T02:46:04.345Z,44.62
2023-01-11T02:48:45.735Z,44.58
2023-01-11T02:51:17.188Z,43.75
2023-01-11T02:53:48.435Z,43.61
2023-01-11T02:56:25.197Z,43.73
2023-01-11T02:58:54.494Z,44.10
2023-01-11T03:01:22.003Z,44.61
2023-01-11T03:03:49.493Z,44.67
2023-01-11T03:06:23.438Z,44.80
2023-01-11T03:09:11.074Z,45.05
2023-01-11T03:12:17.743Z,44.97
2023-01-11T03:14:49.609Z,45.24
2023-01-11T03:17:40.467Z,44.87
2023-01-11T03:20:21.144Z,44.44
2023-01-11T03:23:04.251Z,44.93
2023-01-11T03:25:55.029Z,44.45
2023-01-11T03:28:20.932Z,44.15
2023-01-11T03:30:58.990Z,44.13
2023-01-11T03:33:37.406Z,44.47
2023-01-11T03:36:28.372Z,45.55
2023-01-11T03:39:16.738Z,45.95
2023-01-11T03:41:43.895Z,45.97
2023-01-11T03:44:14.298Z,46.02
2023-01-11T03:46:57.274Z,46.08
2023-01-11T03:49:46.963Z,46.44
2023-01-11T03:52:15.593Z,45.63
2023-01-11T03:54:44.799Z,45.81
2023-01-11T03:57:14.173Z,45.64
2023-01-11T03:59:40.726Z,44.81
2023-01-11T04:02:20.070Z,44.89
2023-01-11T04:04:46.089Z,44.59
2023-01-11T04:07:12.743Z,44.55
2023-01-11T04:09:38.865Z,44.56
2023-01-11T04:12:05.305Z,44.83
2023-01-11T04:14:31.417Z,45.19
2023-01-11T04:16:57.330Z,45.32
2023-01-11T04:19:23.282Z,45.59
2023-01-11T04:21:49.196Z,45.88
2023-01-11T04:24:15.246Z,46.35
2023-01-11T04:26:41.209Z,45.81
2023-01-11T04:29:07.113Z,45.81
2023-01-11T04:31:33.071Z,45.81
2023-01-11T04:33:59.144Z,45.79
2023-01-11T04:36:25.807Z,46.17
2023-01-11T04:38:51.800Z,46.59
2023-01-11T04:41:36.307Z,46.28
2023-01-11T04:44:02.295Z,46.10
2023-01-11T04:46:28.209Z,45.99
2023-01-11T04:48:55.700Z,45.69
2023-01-11T04:51:21.838Z,45.70
2023-01-11T04:53:48.575Z,45.87
2023-01-11T04:56:15.536Z,46.71
2023-01-11T04:58:41.858Z,46.56
2023-01-11T05:01:15.140Z,46.40
2023-01-11T05:03:41.331Z,46.34
2023-01-11T05:06:07.817Z,46.44
2023-01-11T05:08:33.868Z,46.00
2023-01-11T05:11:02.968Z,45.97
2023-01-11T05:13:41.179Z,46.00
2023-01-11T05:16:11.487Z,45.45
2023-01-11T05:18:42.311Z,45.33
2023-01-11T05:21:11.524Z,45.29
2023-01-11T05:23:37.676Z,44.99
2023-01-11T05:26:09.203Z,44.93
2023-01-11T05:28:35.526Z,44.80
2023-01-11T05:31:02.175Z,44.89
2023-01-11T05:33:28.913Z,45.23
2023-01-11T05:36:04.178Z,45.61
2023-01-11T05:38:30.495Z,45.90
2023-01-11T05:41:02.336Z,46.18
2023-01-11T05:43:29.384Z,46.40
2023-01-11T05:45:57.032Z,46.83
2023-01-11T05:48:23.409Z,47.17
2023-01-11T05:50:50.917Z,46.94
2023-01-11T05:53:17.502Z,47.16
2023-01-11T05:55:57.842Z,46.54
2023-01-11T05:58:26.070Z,46.80
2023-01-11T06:00:55.249Z,47.07
2023-01-11T06:03:23.284Z,46.76
2023-01-11T06:05:49.642Z,46.53
2023-01-11T06:08:15.923Z,47.10
2023-01-11T06:10:42.194Z,47.00
2023-01-11T06:13:26.931Z,46.44
2023-01-11T06:15:53.651Z,46.69
2023-01-11T06:18:19.978Z,46.34
2023-01-11T06:20:53.800Z,46.75
2023-01-11T06:23:21.256Z,46.42
2023-01-11T06:25:47.782Z,46.45
2023-01-11T06:28:14.664Z,46.32
2023-01-11T06:30:40.963Z,46.87
2023-01-11T06:33:07.994Z,46.68
2023-01-11T06:35:38.730Z,46.52
2023-01-11T06:38:06.146Z,46.79
2023-01-11T06:40:32.162Z,46.99
2023-01-11T06:42:58.115Z,46.71
2023-01-11T06:45:24.032Z,46.54
2023-01-11T06:47:50.004Z,46.25
2023-01-11T06:50:16.665Z,46.51
2023-01-11T06:52:42.740Z,46.84
2023-01-11T06:55:09.094Z,46.60
2023-01-11T06:57:34.992Z,46.47
2023-01-11T07:00:01.079Z,47.09
2023-01-11T07:02:27.064Z,47.22
2023-01-11T07:04:53.090Z,46.79
2023-01-11T07:07:19.456Z,47.07
2023-01-11T07:09:46.887Z,47.81
2023-01-11T07:12:12.828Z,48.18
2023-01-11T07:14:38.804Z,48.21
2023-01-11T07:17:04.792Z,46.94
2023-01-11T07:19:30.761Z,46.32
2023-01-11T07:21:58.266Z,46.08
2023-01-11T07:24:24.875Z,46.34
2023-01-11T07:26:51.963Z,46.58
2023-01-11T07:29:17.976Z,46.49
2023-01-11T07:31:45.722Z,46.53
2023-01-11T07:34:11.713Z,46.93
2023-01-11T07:36:38.981Z,47.10
2023-01-11T07:39:06.059Z,46.91
2023-01-11T07:41:50.850Z,46.52
2023-01-11T07:44:16.995Z,46.30
2023-01-11T07:46:43.095Z,46.04
2023-01-11T07:49:09.233Z,45.46
2023-01-11T07:51:35.241Z,44.96
2023-01-11T07:54:03.306Z,43.60
2023-01-11T07:56:29.988Z,43.08
2023-01-11T07:58:56.415Z,42.58
2023-01-11T08:01:24.132Z,42.79
2023-01-11T08:03:50.551Z,43.11
2023-01-11T08:06:16.779Z,43.59
2023-01-11T08:08:43.907Z,44.04
2023-01-11T08:11:30.380Z,43.59
2023-01-11T08:14:15.251Z,43.77
2023-01-11T08:16:41.280Z,43.19
2023-01-11T08:19:07.255Z,43.96
2023-01-11T08:21:33.292Z,44.26
2023-01-11T08:23:59.343Z,44.61
2023-01-11T08:26:26.896Z,44.15
2023-01-11T08:28:53.601Z,44.29
2023-01-11T08:31:20.424Z,44.82
2023-01-11T08:33:48.433Z,45.27
2023-01-11T08:36:14.622Z,45.76
2023-01-11T08:38:40.899Z,45.62
2023-01-11T08:41:10.049Z,45.40
2023-01-11T08:43:42.640Z,46.05
2023-01-11T08:46:09.250Z,45.84
2023-01-11T08:48:35.750Z,44.95
2023-01-11T08:51:02.207Z,45.10
2023-01-11T08:53:28.154Z,44.46
2023-01-11T08:55:54.167Z,44.27
2023-01-11T08:58:21.597Z,44.29
2023-01-11T09:00:47.800Z,44.39
2023-01-11T09:03:14.607Z,44.36
2023-01-11T09:05:41.279Z,44.97
2023-01-11T09:08:08.100Z,45.03
2023-01-11T09:10:34.470Z,45.16
2023-01-11T09:13:00.673Z,45.52
2023-01-11T09:15:26.669Z,45.78
2023-01-11T09:17:53.221Z,45.84
2023-01-11T09:20:20.312Z,45.98
2023-01-11T09:22:48.112Z,46.17
2023-01-11T09:25:14.879Z,46.06
2023-01-11T09:27:50.816Z,45.92
2023-01-11T09:30:19.980Z,45.76
2023-01-11T09:32:47.353Z,45.92
2023-01-11T09:35:17.305Z,44.49
2023-01-11T09:37:51.749Z,43.60
2023-01-11T09:40:30.244Z,44.02
2023-01-11T09:43:00.667Z,43.32
2023-01-11T09:45:30.443Z,42.94
2023-01-11T09:48:14.920Z,43.64
2023-01-11T09:50:45.052Z,43.37
2023-01-11T09:53:34.211Z,41.88
2023-01-11T09:56:04.551Z,41.39
2023-01-11T09:58:50.121Z,41.92
2023-01-11T10:01:19.032Z,42.24
2023-01-11T10:03:51.053Z,42.81
2023-01-11T10:06:29.280Z,42.50
2023-01-11T10:18:22.884Z,43.24
2023-01-11T10:18:31.913Z,42.70
2023-01-11T10:21:06.323Z,42.00
2023-01-11T10:23:46.770Z,41.08
2023-01-11T10:26:26.538Z,40.78
2023-01-11T10:29:18.116Z,40.59
2023-01-11T10:32:01.434Z,39.64
2023-01-11T10:34:59.022Z,39.87
2023-01-11T10:37:47.414Z,39.24
2023-01-11T10:40:30.258Z,38.68
2023-01-11T10:43:03.102Z,38.80
2023-01-11T10:45:49.740Z,38.39
2023-01-11T10:48:36.559Z,38.35
2023-01-11T10:51:02.447Z,38.69
2023-01-11T10:53:54.332Z,37.75
2023-01-11T10:56:35.155Z,38.08
2023-01-11T10:59:27.348Z,38.83
2023-01-11T11:02:31.148Z,39.18
2023-01-11T11:05:50.360Z,39.06
2023-01-11T11:08:26.359Z,39.55
2023-01-11T11:11:00.975Z,40.00
2023-01-11T11:13:36.829Z,39.63
2023-01-11T11:16:26.711Z,39.62
2023-01-11T11:18:57.635Z,39.57
2023-01-11T11:21:29.834Z,38.84
2023-01-11T11:24:01.722Z,39.27
2023-01-11T11:26:36.875Z,38.46
2023-01-11T11:29:18.639Z,38.45
2023-01-11T11:31:46.377Z,38.24
2023-01-11T11:34:16.138Z,38.08
2023-01-11T11:36:44.970Z,38.08
2023-01-11T11:39:17.939Z,38.24
2023-01-11T11:41:47.139Z,37.90
2023-01-11T11:44:24.797Z,37.82
2023-01-11T11:47:01.148Z,37.41
2023-01-11T11:49:29.644Z,37.03
2023-01-11T11:51:57.881Z,36.87
2023-01-11T11:54:28.864Z,37.32
2023-01-11T11:56:58.251Z,36.90
2023-01-11T11:59:29.104Z,36.95
2023-01-11T12:02:04.400Z,37.35
2023-01-11T12:04:48.504Z,36.70
2023-01-11T12:07:22.739Z,36.93
2023-01-11T12:10:12.990Z,37.03
2023-01-11T12:13:02.453Z,36.93
2023-01-11T12:15:30.736Z,36.95
2023-01-11T12:18:26.811Z,36.67
2023-01-11T12:20:54.039Z,36.33
2023-01-11T12:23:23.648Z,37.03
2023-01-11T12:25:55.768Z,36.47
2023-01-11T12:28:37.297Z,36.54
2023-01-11T12:31:31.285Z,36.10
2023-01-11T12:34:16.300Z,36.71
2023-01-11T12:37:04.357Z,37.08
2023-01-11T12:39:56.623Z,37.28
2023-01-11T12:42:37.647Z,37.04
2023-01-11T12:45:16.194Z,36.45
2023-01-11T12:48:03.552Z,36.42
2023-01-11T12:50:46.911Z,36.57
2023-01-11T12:53:18.960Z,36.64
2023-01-11T12:55:58.385Z,37.33
2023-01-11T12:58:43.112Z,37.46
2023-01-11T13:01:18.538Z,37.18
2023-01-11T13:04:22.395Z,37.56
2023-01-11T13:07:03.463Z,37.64
2023-01-11T13:09:41.630Z,37.58
2023-01-11T13:12:28.901Z,37.71
2023-01-11T13:15:21.344Z,38.18
2023-01-11T13:17:54.902Z,37.47
2023-01-11T13:20:40.509Z,37.41
2023-01-11T13:23:32.525Z,37.04
2023-01-11T13:26:12.214Z,37.03
2023-01-11T13:28:42.821Z,36.91
2023-01-11T13:31:13.012Z,37.00
2023-01-11T13:33:44.719Z,37.42
2023-01-11T13:36:23.630Z,37.15
2023-01-11T13:39:13.527Z,37.35
2023-01-11T13:41:48.368Z,37.64
2023-01-11T13:44:47.247Z,37.97
2023-01-11T13:47:23.550Z,37.17
2023-01-11T13:50:09.816Z,37.21
2023-01-11T13:52:58.793Z,37.28
2023-01-11T13:55:51.001Z,37.13
2023-01-11T13:58:30.744Z,37.70
2023-01-11T14:01:02.886Z,37.82
2023-01-11T14:03:41.278Z,37.91
2023-01-11T14:06:33.994Z,38.43
2023-01-11T14:09:26.409Z,39.08
2023-01-11T14:12:22.720Z,39.54
2023-01-11T14:15:14.400Z,39.56
2023-01-11T14:18:09.657Z,38.76
2023-01-11T14:20:54.312Z,38.91
2023-01-11T14:23:25.758Z,39.14
2023-01-11T14:26:19.503Z,39.00
2023-01-11T14:28:51.550Z,39.24
2023-01-11T14:31:37.841Z,39.56
2023-01-11T14:34:28.245Z,39.90
2023-01-11T14:37:15.406Z,40.04
2023-01-11T14:40:10.533Z,40.63
2023-01-11T14:43:07.139Z,40.92
2023-01-11T14:45:52.118Z,41.72
2023-01-11T14:48:46.336Z,41.83
2023-01-11T14:51:35.923Z,42.84
2023-01-11T14:54:22.594Z,43.63
2023-01-11T14:56:55.315Z,44.26
2023-01-11T14:59:28.353Z,44.53
2023-01-11T15:02:03.424Z,45.90
2023-01-11T15:04:59.097Z,45.37
2023-01-11T15:07:28.153Z,45.23
2023-01-11T15:09:55.595Z,45.22
2023-01-11T15:12:23.116Z,44.94
2023-01-11T15:14:55.998Z,44.63
2023-01-11T15:17:44.317Z,44.53
2023-01-11T15:20:16.265Z,45.18
2023-01-11T15:22:43.519Z,47.05
2023-01-11T15:25:22.270Z,47.32
2023-01-11T15:27:48.935Z,47.68
2023-01-11T15:30:30.479Z,47.89
2023-01-11T15:33:18.837Z,47.66
2023-01-11T15:35:57.159Z,49.04
2023-01-11T15:38:26.310Z,49.45
2023-01-11T15:40:55.782Z,49.70
2023-01-11T15:43:42.563Z,49.56
2023-01-11T15:46:36.301Z,49.39
2023-01-11T15:49:32.839Z,49.75
2023-01-11T15:52:19.344Z,49.60
2023-01-11T15:55:05.586Z,49.43
2023-01-11T15:57:56.528Z,50.29
2023-01-11T16:01:00.677Z,51.03
2023-01-11T16:03:29.438Z,51.32
2023-01-11T16:06:23.613Z,51.93
2023-01-11T16:09:02.338Z,51.43
2023-01-11T16:11:43.704Z,51.61
2023-01-11T16:14:18.686Z,51.91
2023-01-11T16:16:51.938Z,52.58
2023-01-11T16:19:21.025Z,52.91
2023-01-11T16:21:51.079Z,53.33
2023-01-11T16:24:19.867Z,53.63
2023-01-11T16:26:54.615Z,54.23
2023-01-11T16:29:26.524Z,54.35
2023-01-11T16:32:03.906Z,54.72
2023-01-11T16:34:39.325Z,54.88
2023-01-11T16:37:24.034Z,55.02
2023-01-11T16:39:54.661Z,55.27
2023-01-11T16:42:21.408Z,55.90
2023-01-11T16:44:53.081Z,55.81
2023-01-11T16:47:20.739Z,55.12
2023-01-11T16:49:51.569Z,54.75
2023-01-11T16:52:26.445Z,54.74
2023-01-11T16:54:54.954Z,54.99
2023-01-11T16:57:27.494Z,55.15
2023-01-11T17:00:03.307Z,55.30
2023-01-11T17:02:34.934Z,55.42
2023-01-11T17:05:01.035Z,55.58
2023-01-11T17:07:29.209Z,55.72
2023-01-11T17:10:24.707Z,55.64
2023-01-11T17:13:44.815Z,55.94
2023-01-11T17:16:15.070Z,56.20
2023-01-11T17:18:43.297Z,56.17
2023-01-11T17:21:32.232Z,56.04
2023-01-11T17:24:01.511Z,56.23
2023-01-11T17:26:31.363Z,56.55
2023-01-11T17:28:59.185Z,56.85
2023-01-11T17:31:31.422Z,56.93
2023-01-11T17:34:14.629Z,57.06
2023-01-11T17:36:42.756Z,56.87
2023-01-11T17:39:24.209Z,56.90
2023-01-11T17:42:08.809Z,56.83
2023-01-11T17:44:54.392Z,56.91
2023-01-11T17:47:23.047Z,56.95
2023-01-11T17:49:49.875Z,56.14
2023-01-11T17:52:24.349Z,55.97
2023-01-11T17:55:16.977Z,55.72
2023-01-11T17:57:43.869Z,56.05
2023-01-11T18:00:26.478Z,56.16
2023-01-11T18:02:53.600Z,56.52
2023-01-11T18:05:25.174Z,56.23
2023-01-11T18:07:59.459Z,56.62
2023-01-11T18:10:28.453Z,56.96
2023-01-11T18:12:57.222Z,57.28
2023-01-11T18:15:27.812Z,57.53
2023-01-11T18:17:56.389Z,57.02
2023-01-11T18:20:31.991Z,56.74
2023-01-11T18:23:04.835Z,56.91
2023-01-11T18:25:36.653Z,56.42
2023-01-11T18:28:11.564Z,56.69
2023-01-11T18:30:46.943Z,56.96
2023-01-11T18:33:22.127Z,56.14
2023-01-11T18:35:51.281Z,56.38
2023-01-11T18:38:23.040Z,57.19
2023-01-11T18:40:50.980Z,56.36
2023-01-11T18:43:23.248Z,55.69
2023-01-11T18:45:49.323Z,55.75
2023-01-11T18:48:15.687Z,55.75
2023-01-11T18:50:44.389Z,54.94
2023-01-11T18:53:11.840Z,54.58
2023-01-11T18:55:38.100Z,54.11
2023-01-11T18:58:04.811Z,54.25
2023-01-11T19:00:30.969Z,54.01
2023-01-11T19:02:57.062Z,54.09
2023-01-11T19:05:23.356Z,53.27
2023-01-11T19:07:49.573Z,52.45
2023-01-11T19:10:21.162Z,52.83
2023-01-11T19:12:47.433Z,53.83
2023-01-11T19:15:14.788Z,54.35
2023-01-11T19:17:40.793Z,54.56
2023-01-11T19:20:08.529Z,54.85
2023-01-11T19:22:36.343Z,54.94
2023-01-11T19:25:03.006Z,54.96
2023-01-11T19:27:29.016Z,54.76
2023-01-11T19:29:56.947Z,53.93
2023-01-11T19:32:24.850Z,53.61
2023-01-11T19:34:59.017Z,54.66
2023-01-11T19:37:26.525Z,53.34
2023-01-11T19:39:52.702Z,52.49
2023-01-11T19:42:18.922Z,52.30
2023-01-11T19:44:44.885Z,52.38
2023-01-11T19:47:14.857Z,51.78
2023-01-11T19:49:42.116Z,51.69
2023-01-11T19:52:13.715Z,51.89
2023-01-11T19:54:42.358Z,51.67
2023-01-11T19:57:14.419Z,51.49
2023-01-11T19:59:41.646Z,51.69
2023-01-11T20:02:13.385Z,52.34
2023-01-11T20:04:40.328Z,52.74
2023-01-11T20:07:07.343Z,53.54
2023-01-11T20:09:36.795Z,53.56
2023-01-11T20:12:04.922Z,52.78
2023-01-11T20:14:30.983Z,52.10
2023-01-11T20:16:57.031Z,51.82
2023-01-11T20:19:23.116Z,51.15
2023-01-11T20:21:49.149Z,50.84
2023-01-11T20:24:15.470Z,50.85
2023-01-11T20:26:42.566Z,50.57
2023-01-11T20:29:08.596Z,50.08
2023-01-11T20:31:34.960Z,50.33
2023-01-11T20:34:10.160Z,51.15
2023-01-11T20:36:36.965Z,50.45
2023-01-11T20:39:03.952Z,49.93
2023-01-11T20:41:48.145Z,50.19
2023-01-11T20:44:27.832Z,50.69
2023-01-11T20:46:58.053Z,51.24
2023-01-11T20:49:28.200Z,51.05
2023-01-11T20:51:55.781Z,50.45
2023-01-11T20:54:21.667Z,49.88
2023-01-11T20:56:48.694Z,48.95
2023-01-11T20:59:18.522Z,48.61
2023-01-11T21:01:46.357Z,49.22
2023-01-11T21:04:12.758Z,49.22
2023-01-11T21:06:42.032Z,49.61
2023-01-11T21:09:09.427Z,50.85
2023-01-11T21:11:36.379Z,49.77
2023-01-11T21:14:03.598Z,48.09
2023-01-11T21:16:30.781Z,47.24
2023-01-11T21:18:58.891Z,48.71
2023-01-11T21:21:26.007Z,50.48
2023-01-11T21:23:57.742Z,50.68
2023-01-11T21:26:25.050Z,50.52
2023-01-11T21:28:53.791Z,51.22
2023-01-11T21:31:22.689Z,51.25
2023-01-11T21:33:49.548Z,51.03
2023-01-11T21:36:18.083Z,51.51
2023-01-11T21:38:44.220Z,50.91
2023-01-11T21:41:15.503Z,50.79
2023-01-11T21:43:42.150Z,51.34
2023-01-11T21:46:09.402Z,51.50
2023-01-11T21:48:35.655Z,52.30
2023-01-11T21:51:02.330Z,51.99
2023-01-11T21:53:32.460Z,52.01
2023-01-11T21:56:06.812Z,51.31
2023-01-11T21:58:34.369Z,51.52
2023-01-11T22:01:09.184Z,51.28
2023-01-11T22:03:35.388Z,51.38
2023-01-11T22:06:03.366Z,51.65
2023-01-11T22:08:29.728Z,52.36
2023-01-11T22:11:00.449Z,52.78
2023-01-11T22:13:37.036Z,52.91
2023-01-11T22:16:12.953Z,53.65
2023-01-11T22:18:42.504Z,53.90
2023-01-11T22:21:14.597Z,53.71
2023-01-11T22:23:41.176Z,54.26
2023-01-11T22:26:13.618Z,55.16
2023-01-11T22:28:59.306Z,56.58
2023-01-11T22:31:27.044Z,56.74
2023-01-11T22:33:54.289Z,56.82
2023-01-11T22:36:22.461Z,56.69
2023-01-11T22:38:48.559Z,57.74
2023-01-11T22:41:14.668Z,58.55
2023-01-11T22:43:42.549Z,58.35
2023-01-11T22:46:13.215Z,58.43
2023-01-11T22:48:39.325Z,58.42
2023-01-11T22:51:06.349Z,58.11
2023-01-11T22:53:40.216Z,57.61
2023-01-11T22:56:07.084Z,58.03
2023-01-11T22:58:35.230Z,57.94
2023-01-11T23:01:34.991Z,57.33
2023-01-11T23:04:01.653Z,57.11
2023-01-11T23:06:36.386Z,56.85
2023-01-11T23:09:04.297Z,56.92
2023-01-11T23:11:53.773Z,57.07
2023-01-11T23:14:20.089Z,57.02
2023-01-11T23:16:47.566Z,56.53
2023-01-11T23:19:16.068Z,56.46
2023-01-11T23:21:44.190Z,57.22
2023-01-11T23:24:12.522Z,58.11
2023-01-11T23:26:38.613Z,57.58
2023-01-11T23:29:05.139Z,56.24
2023-01-11T23:31:31.283Z,55.11
2023-01-11T23:33:59.846Z,54.89
2023-01-11T23:36:31.615Z,54.85
2023-01-11T23:38:57.901Z,55.41
2023-01-11T23:41:43.062Z,55.45
2023-01-11T23:44:11.981Z,55.68
2023-01-11T23:46:57.503Z,55.68
2023-01-11T23:49:26.597Z,56.28
2023-01-11T23:51:54.993Z,56.33
2023-01-11T23:54:22.171Z,55.80
2023-01-11T23:56:48.515Z,55.78
2023-01-11T23:59:14.517Z,55.83
